Darstellungsparameter: Aktuell verwendete Einstellungen:
Skalierung der Graphiken ... ?
xyx+y,   Skalierungsfaktor:      Skalierung: Modus: x, Faktor: 1
Darstellungszeitraum ... ?
Vom - - bis: - -   Zeitraum: 13.05.2021 - 14.05.2021
Min/Max/Avg-Anzeige ... ?
Zeige MMA aktuell
Zeige MMA Monat
Zeige MMA alles
Zeige --A aktuell
Zeige --A Monat
Zeige --A alles
Keine MMA-Anzeige
MMA:
Keine MMA-Graphiken
MMA-Basis: 13.05.2021 - 14.05.2021
Quicknavigation für Darstellung... ?
Tage:      1T, 2T, 3T, 5T -1T -2T -3T -5T +1T +2T +3T +5T
Wochen: 1W, 2W, 3W -1W -2W -3W +1W +2W +3W
Monate: 1M, 3M, 6M -1M -3M -6M +1M +3M +6M
Jahre:    1J, 3J, 5J, 10J -1J -3J -5J -10J +1J +3J +5J +10J
Nutze für die Darstellung ... ?
Originaldaten oder Mittelwerte auf ...
Stundenbasis Tagesbasis Wochenbasis
Monatsbasis Jahresbasis      Datenbasis: Original-Daten
Darstellen als:
Statistik (Auto) Statistik J:M      Darstellung:
Zur Graphik,    zurück zur Übersicht aller Sensoren.
 
Tabellarische Datenbersicht: ?
 
Sensor: Nr:Datum:Temp:Feuchte:Taupunkt:
Aussen-T/F 1 13-05-2021 00:00:00 10.3 C 89 % 8.57 C
2 13-05-2021 00:05:00 10.3 C 89 % 8.57 C
3 13-05-2021 00:10:00 10.1 C 90 % 8.54 C
4 13-05-2021 00:15:00 10.1 C 90 % 8.54 C
5 13-05-2021 00:20:00 9.9 C 90 % 8.34 C
6 13-05-2021 00:25:00 9.8 C 90 % 8.24 C
7 13-05-2021 00:30:00 9.8 C 90 % 8.24 C
8 13-05-2021 00:35:00 9.7 C 90 % 8.14 C
9 13-05-2021 00:40:00 9.6 C 91 % 8.21 C
10 13-05-2021 00:45:00 9.4 C 91 % 8.01 C
11 13-05-2021 00:50:00 9.4 C 91 % 8.01 C
12 13-05-2021 00:55:00 9.3 C 92 % 8.07 C
13 13-05-2021 01:00:00 9.3 C 92 % 8.07 C
14 13-05-2021 01:05:00 9.2 C 92 % 7.97 C
15 13-05-2021 01:10:00 9.1 C 92 % 7.87 C
16 13-05-2021 01:15:00 9.1 C 92 % 7.87 C
17 13-05-2021 01:20:00 9 C 92 % 7.77 C
18 13-05-2021 01:25:00 8.9 C 92 % 7.67 C
19 13-05-2021 01:30:00 8.9 C 92 % 7.67 C
20 13-05-2021 01:35:00 8.8 C 93 % 7.73 C
21 13-05-2021 01:40:00 8.7 C 92 % 7.47 C
22 13-05-2021 01:45:00 8.7 C 93 % 7.63 C
23 13-05-2021 01:50:00 8.6 C 93 % 7.53 C
24 13-05-2021 01:55:00 8.6 C 93 % 7.53 C
25 13-05-2021 02:00:00 8.5 C 93 % 7.43 C
Sensor: Nr:Datum:Temp:Feuchte:Taupunkt:
Aussen-T/F 26 13-05-2021 02:05:00 8.4 C 93 % 7.34 C
27 13-05-2021 02:10:00 8.4 C 93 % 7.34 C
28 13-05-2021 02:15:00 8.3 C 93 % 7.24 C
29 13-05-2021 02:20:00 8.3 C 93 % 7.24 C
30 13-05-2021 02:25:00 8.2 C 93 % 7.14 C
31 13-05-2021 02:30:00 8.1 C 93 % 7.04 C
32 13-05-2021 02:35:00 8.1 C 93 % 7.04 C
33 13-05-2021 02:40:00 8 C 94 % 7.09 C
34 13-05-2021 02:45:00 7.9 C 94 % 7 C
35 13-05-2021 02:50:00 7.9 C 94 % 7 C
36 13-05-2021 02:55:00 8 C 94 % 7.09 C
37 13-05-2021 03:00:00 7.9 C 94 % 7 C
38 13-05-2021 03:05:00 7.8 C 94 % 6.9 C
39 13-05-2021 03:10:00 7.8 C 94 % 6.9 C
40 13-05-2021 03:15:00 7.7 C 94 % 6.8 C
41 13-05-2021 03:20:00 7.7 C 94 % 6.8 C
42 13-05-2021 03:25:00 7.7 C 94 % 6.8 C
43 13-05-2021 03:30:00 7.6 C 94 % 6.7 C
44 13-05-2021 03:35:00 7.5 C 94 % 6.6 C
45 13-05-2021 03:40:00 7.4 C 94 % 6.5 C
46 13-05-2021 03:45:00 7.4 C 94 % 6.5 C
47 13-05-2021 03:50:00 7.4 C 94 % 6.5 C
48 13-05-2021 03:55:00 7.4 C 95 % 6.65 C
49 13-05-2021 04:00:00 7.4 C 95 % 6.65 C
50 13-05-2021 04:05:00 7.4 C 95 % 6.65 C
Sensor: Nr:Datum:Temp:Feuchte:Taupunkt:
Aussen-T/F 51 13-05-2021 04:10:00 7.3 C 95 % 6.55 C
52 13-05-2021 04:15:00 7.3 C 95 % 6.55 C
53 13-05-2021 04:20:00 7.2 C 95 % 6.45 C
54 13-05-2021 04:25:00 7.2 C 95 % 6.45 C
55 13-05-2021 04:30:00 7.2 C 95 % 6.45 C
56 13-05-2021 04:35:00 7.2 C 95 % 6.45 C
57 13-05-2021 04:40:00 7.2 C 95 % 6.45 C
58 13-05-2021 04:45:00 7.2 C 95 % 6.45 C
59 13-05-2021 04:50:00 7.1 C 95 % 6.35 C
60 13-05-2021 04:55:00 7.1 C 95 % 6.35 C
61 13-05-2021 05:00:00 7 C 95 % 6.26 C
62 13-05-2021 05:05:00 7 C 95 % 6.26 C
63 13-05-2021 05:10:00 7 C 95 % 6.26 C
64 13-05-2021 05:15:00 6.9 C 95 % 6.16 C
65 13-05-2021 05:20:00 6.8 C 95 % 6.06 C
66 13-05-2021 05:25:00 6.7 C 95 % 5.96 C
67 13-05-2021 05:30:00 6.6 C 95 % 5.86 C
68 13-05-2021 05:35:00 6.6 C 95 % 5.86 C
69 13-05-2021 05:40:00 6.5 C 95 % 5.76 C
70 13-05-2021 05:45:00 6.4 C 95 % 5.66 C
71 13-05-2021 05:50:00 6.4 C 95 % 5.66 C
72 13-05-2021 05:55:00 6.5 C 95 % 5.76 C
73 13-05-2021 06:00:00 6.4 C 95 % 5.66 C
74 13-05-2021 06:05:00 6.4 C 95 % 5.66 C
75 13-05-2021 06:10:00 6.4 C 95 % 5.66 C
Sensor: Nr:Datum:Temp:Feuchte:Taupunkt:
Aussen-T/F 76 13-05-2021 06:15:00 6.5 C 96 % 5.91 C
77 13-05-2021 06:20:00 6.7 C 96 % 6.11 C
78 13-05-2021 06:25:00 6.8 C 96 % 6.21 C
79 13-05-2021 06:30:00 6.9 C 96 % 6.31 C
80 13-05-2021 06:35:00 6.9 C 96 % 6.31 C
81 13-05-2021 06:40:00 6.9 C 96 % 6.31 C
82 13-05-2021 06:45:00 6.9 C 96 % 6.31 C
83 13-05-2021 06:50:00 7 C 96 % 6.41 C
84 13-05-2021 06:55:00 7.1 C 96 % 6.51 C
85 13-05-2021 07:00:00 7.1 C 96 % 6.51 C
86 13-05-2021 07:05:00 7.2 C 96 % 6.61 C
87 13-05-2021 07:10:00 7.2 C 96 % 6.61 C
88 13-05-2021 07:15:00 7.2 C 96 % 6.61 C
89 13-05-2021 07:20:00 7.3 C 96 % 6.71 C
90 13-05-2021 07:25:00 7.3 C 96 % 6.71 C
91 13-05-2021 07:30:00 7.4 C 96 % 6.8 C
92 13-05-2021 07:35:00 7.4 C 96 % 6.8 C
93 13-05-2021 07:40:00 7.4 C 96 % 6.8 C
94 13-05-2021 07:45:00 7.5 C 96 % 6.9 C
95 13-05-2021 07:50:00 7.6 C 96 % 7 C
96 13-05-2021 07:55:00 7.8 C 96 % 7.2 C
97 13-05-2021 08:00:00 7.9 C 96 % 7.3 C
98 13-05-2021 08:05:00 7.9 C 96 % 7.3 C
99 13-05-2021 08:10:00 8 C 96 % 7.4 C
100 13-05-2021 08:15:00 8.1 C 96 % 7.5 C
Sensor: Nr:Datum:Temp:Feuchte:Taupunkt:
Aussen-T/F 101 13-05-2021 08:20:00 8.1 C 96 % 7.5 C
102 13-05-2021 08:25:00 8.1 C 96 % 7.5 C
103 13-05-2021 08:30:00 8.2 C 96 % 7.6 C
104 13-05-2021 08:35:00 8.2 C 96 % 7.6 C
105 13-05-2021 08:40:00 8.3 C 96 % 7.7 C
106 13-05-2021 08:45:00 8.3 C 96 % 7.7 C
107 13-05-2021 08:50:00 8.4 C 96 % 7.8 C
108 13-05-2021 08:55:00 8.5 C 96 % 7.9 C
109 13-05-2021 09:00:00 8.7 C 96 % 8.1 C
110 13-05-2021 09:05:00 8.8 C 96 % 8.2 C
111 13-05-2021 09:10:00 9.1 C 97 % 8.65 C
112 13-05-2021 09:15:00 9.2 C 96 % 8.6 C
113 13-05-2021 09:20:00 9.3 C 96 % 8.7 C
114 13-05-2021 09:25:00 9.5 C 96 % 8.89 C
115 13-05-2021 09:30:00 9.6 C 96 % 8.99 C
116 13-05-2021 09:35:00 9.7 C 95 % 8.94 C
117 13-05-2021 09:40:00 9.8 C 96 % 9.19 C
118 13-05-2021 09:45:00 9.9 C 95 % 9.14 C
119 13-05-2021 09:50:00 10.1 C 95 % 9.34 C
120 13-05-2021 09:55:00 10.2 C 95 % 9.44 C
121 13-05-2021 10:00:00 10.3 C 95 % 9.54 C
122 13-05-2021 10:05:00 10.4 C 95 % 9.63 C
123 13-05-2021 10:10:00 10.6 C 95 % 9.83 C
124 13-05-2021 10:15:00 10.7 C 94 % 9.77 C
125 13-05-2021 10:20:00 11 C 94 % 10.07 C
Sensor: Nr:Datum:Temp:Feuchte:Taupunkt:
Aussen-T/F 126 13-05-2021 10:25:00 11.2 C 94 % 10.27 C
127 13-05-2021 10:30:00 11.6 C 93 % 10.51 C
128 13-05-2021 10:35:00 11.9 C 92 % 10.64 C
129 13-05-2021 10:40:00 12.4 C 90 % 10.81 C
130 13-05-2021 10:45:00 12.7 C 88 % 10.77 C
131 13-05-2021 10:50:00 13.1 C 85 % 10.64 C
132 13-05-2021 10:55:00 13.3 C 84 % 10.66 C
133 13-05-2021 11:00:00 13.6 C 83 % 10.77 C
134 13-05-2021 11:05:00 13.8 C 81 % 10.6 C
135 13-05-2021 11:10:00 14.1 C 80 % 10.71 C
136 13-05-2021 11:15:00 14.4 C 76 % 10.23 C
137 13-05-2021 11:20:00 14.7 C 73 % 9.92 C
138 13-05-2021 11:25:00 15 C 75 % 10.61 C
139 13-05-2021 11:30:00 15.1 C 77 % 11.1 C
140 13-05-2021 11:35:00 15 C 79 % 11.39 C
141 13-05-2021 11:40:00 15 C 80 % 11.58 C
142 13-05-2021 11:45:00 14.9 C 75 % 10.51 C
143 13-05-2021 11:50:00 15 C 71 % 9.79 C
144 13-05-2021 11:55:00 15.2 C 70 % 9.77 C
145 13-05-2021 12:00:00 15.5 C 75 % 11.09 C
146 13-05-2021 12:05:00 15.6 C 74 % 10.99 C
147 13-05-2021 12:10:00 15.8 C 75 % 11.38 C
148 13-05-2021 12:15:00 15.8 C 75 % 11.38 C
149 13-05-2021 12:20:00 16 C 75 % 11.57 C
150 13-05-2021 12:25:00 16.1 C 75 % 11.67 C
Sensor: Nr:Datum:Temp:Feuchte:Taupunkt:
Aussen-T/F 151 13-05-2021 12:30:00 16.3 C 74 % 11.66 C
152 13-05-2021 12:35:00 16.4 C 66 % 10.04 C
153 13-05-2021 12:40:00 16.7 C 62 % 9.39 C
154 13-05-2021 12:45:00 16.9 C 60 % 9.09 C
155 13-05-2021 12:50:00 17.2 C 57 % 8.62 C
156 13-05-2021 12:55:00 17.4 C 54 % 8.01 C
157 13-05-2021 13:00:00 17.7 C 52 % 7.73 C
158 13-05-2021 13:05:00 17.8 C 52 % 7.82 C
159 13-05-2021 13:10:00 17.8 C 52 % 7.82 C
160 13-05-2021 13:15:00 17.8 C 56 % 8.91 C
161 13-05-2021 13:20:00 17.9 C 54 % 8.47 C
162 13-05-2021 13:25:00 17.9 C 55 % 8.74 C
163 13-05-2021 13:30:00 17.9 C 53 % 8.19 C
164 13-05-2021 13:35:00 17.8 C 52 % 7.82 C
165 13-05-2021 13:40:00 17.9 C 53 % 8.19 C
166 13-05-2021 13:45:00 18.1 C 52 % 8.1 C
167 13-05-2021 13:50:00 18.4 C 49 % 7.5 C
168 13-05-2021 13:55:00 18.6 C 49 % 7.69 C
169 13-05-2021 14:00:00 18.7 C 50 % 8.08 C
170 13-05-2021 14:05:00 18.7 C 44 % 6.21 C
171 13-05-2021 14:10:00 18.8 C 48 % 7.57 C
172 13-05-2021 14:15:00 19.1 C 42 % 5.9 C
173 13-05-2021 14:20:00 19.3 C 42 % 6.08 C
174 13-05-2021 14:25:00 19.3 C 43 % 6.42 C
175 13-05-2021 14:30:00 19.3 C 45 % 7.08 C
Sensor: Nr:Datum:Temp:Feuchte:Taupunkt:
Aussen-T/F 176 13-05-2021 14:35:00 19.4 C 46 % 7.49 C
177 13-05-2021 14:40:00 19.4 C 45 % 7.17 C
178 13-05-2021 14:45:00 19.4 C 50 % 8.72 C
179 13-05-2021 14:50:00 19.3 C 52 % 9.21 C
180 13-05-2021 14:55:00 19.2 C 51 % 8.83 C
181 13-05-2021 15:00:00 19.1 C 51 % 8.73 C
182 13-05-2021 15:05:00 19.2 C 51 % 8.83 C
183 13-05-2021 15:10:00 19.7 C 52 % 9.58 C
184 13-05-2021 15:15:00 19.8 C 47 % 8.17 C
185 13-05-2021 15:20:00 19.9 C 48 % 8.57 C
186 13-05-2021 15:25:00 20.3 C 48 % 8.94 C
187 13-05-2021 15:30:00 20.2 C 46 % 8.22 C
188 13-05-2021 15:35:00 19.9 C 45 % 7.63 C
189 13-05-2021 15:40:00 19.9 C 48 % 8.57 C
190 13-05-2021 15:45:00 20.1 C 49 % 9.06 C
191 13-05-2021 15:50:00 20.4 C 48 % 9.03 C
192 13-05-2021 15:55:00 20.6 C 50 % 9.82 C
193 13-05-2021 16:00:00 21 C 47 % 9.27 C
194 13-05-2021 16:05:00 21 C 45 % 8.62 C
195 13-05-2021 16:10:00 20.6 C 46 % 8.58 C
196 13-05-2021 16:15:00 20 C 48 % 8.67 C
197 13-05-2021 16:20:00 19.4 C 49 % 8.42 C
198 13-05-2021 16:25:00 18.8 C 51 % 8.46 C
199 13-05-2021 16:30:00 18.5 C 53 % 8.75 C
200 13-05-2021 16:35:00 18.2 C 54 % 8.75 C
Sensor: Nr:Datum:Temp:Feuchte:Taupunkt:
Aussen-T/F 201 13-05-2021 16:40:00 18.1 C 55 % 8.93 C
202 13-05-2021 16:45:00 17.9 C 54 % 8.47 C
203 13-05-2021 16:50:00 17.7 C 55 % 8.55 C
204 13-05-2021 16:55:00 17.7 C 56 % 8.82 C
205 13-05-2021 17:00:00 17.7 C 57 % 9.08 C
206 13-05-2021 17:05:00 17.8 C 55 % 8.65 C
207 13-05-2021 17:10:00 18 C 56 % 9.1 C
208 13-05-2021 17:15:00 18.1 C 55 % 8.93 C
209 13-05-2021 17:20:00 18.1 C 57 % 9.46 C
210 13-05-2021 17:25:00 18.1 C 58 % 9.71 C
211 13-05-2021 17:30:00 18.2 C 58 % 9.81 C
212 13-05-2021 17:35:00 18.3 C 57 % 9.64 C
213 13-05-2021 17:40:00 18.8 C 56 % 9.84 C
214 13-05-2021 17:45:00 19.4 C 54 % 9.86 C
215 13-05-2021 17:50:00 19.8 C 53 % 9.95 C
216 13-05-2021 17:55:00 20.1 C 52 % 9.94 C
217 13-05-2021 18:00:00 20 C 49 % 8.97 C
218 13-05-2021 18:05:00 19.7 C 49 % 8.7 C
219 13-05-2021 18:10:00 19.2 C 51 % 8.83 C
220 13-05-2021 18:15:00 18.6 C 52 % 8.56 C
221 13-05-2021 18:20:00 18.1 C 54 % 8.65 C
222 13-05-2021 18:25:00 17.8 C 54 % 8.38 C
223 13-05-2021 18:30:00 17.7 C 56 % 8.82 C
224 13-05-2021 18:35:00 17.5 C 56 % 8.63 C
225 13-05-2021 18:40:00 17.1 C 58 % 8.78 C
Sensor: Nr:Datum:Temp:Feuchte:Taupunkt:
Aussen-T/F 226 13-05-2021 18:45:00 16.8 C 60 % 9 C
227 13-05-2021 18:50:00 16.7 C 60 % 8.9 C
228 13-05-2021 18:55:00 16.6 C 60 % 8.81 C
229 13-05-2021 19:00:00 16.4 C 62 % 9.11 C
230 13-05-2021 19:05:00 16.3 C 62 % 9.01 C
231 13-05-2021 19:10:00 16.2 C 62 % 8.92 C
232 13-05-2021 19:15:00 16.1 C 65 % 9.53 C
233 13-05-2021 19:20:00 15.9 C 64 % 9.11 C
234 13-05-2021 19:25:00 15.8 C 65 % 9.24 C
235 13-05-2021 19:30:00 15.7 C 66 % 9.37 C
236 13-05-2021 19:35:00 15.7 C 67 % 9.6 C
237 13-05-2021 19:40:00 15.6 C 66 % 9.28 C
238 13-05-2021 19:45:00 15.5 C 67 % 9.41 C
239 13-05-2021 19:50:00 15.5 C 67 % 9.41 C
240 13-05-2021 19:55:00 15.6 C 68 % 9.72 C
241 13-05-2021 20:00:00 15.6 C 68 % 9.72 C
242 13-05-2021 20:05:00 15.4 C 68 % 9.53 C
243 13-05-2021 20:10:00 15.3 C 69 % 9.65 C
244 13-05-2021 20:15:00 15.2 C 70 % 9.77 C
245 13-05-2021 20:20:00 15.1 C 70 % 9.67 C
246 13-05-2021 20:25:00 15 C 71 % 9.79 C
247 13-05-2021 20:30:00 14.9 C 72 % 9.9 C
248 13-05-2021 20:35:00 14.8 C 72 % 9.81 C
249 13-05-2021 20:40:00 14.7 C 72 % 9.71 C
250 13-05-2021 20:45:00 14.7 C 72 % 9.71 C
Sensor: Nr:Datum:Temp:Feuchte:Taupunkt:
Aussen-T/F 251 13-05-2021 20:50:00 14.6 C 72 % 9.61 C
252 13-05-2021 20:55:00 14.4 C 73 % 9.63 C
253 13-05-2021 21:00:00 14.4 C 73 % 9.63 C
254 13-05-2021 21:05:00 14.3 C 73 % 9.53 C
255 13-05-2021 21:10:00 14.2 C 73 % 9.43 C
256 13-05-2021 21:15:00 14.1 C 72 % 9.13 C
257 13-05-2021 21:20:00 14.1 C 72 % 9.13 C
258 13-05-2021 21:25:00 14 C 72 % 9.04 C
259 13-05-2021 21:30:00 13.9 C 71 % 8.73 C
260 13-05-2021 21:35:00 13.9 C 71 % 8.73 C
261 13-05-2021 21:40:00 13.8 C 71 % 8.64 C
262 13-05-2021 21:45:00 13.8 C 71 % 8.64 C
263 13-05-2021 21:50:00 13.8 C 71 % 8.64 C
264 13-05-2021 21:55:00 13.7 C 71 % 8.54 C
265 13-05-2021 22:00:00 13.7 C 72 % 8.75 C
266 13-05-2021 22:05:00 13.7 C 72 % 8.75 C
267 13-05-2021 22:10:00 13.6 C 73 % 8.86 C
268 13-05-2021 22:15:00 13.6 C 74 % 9.06 C
269 13-05-2021 22:20:00 13.5 C 74 % 8.96 C
270 13-05-2021 22:25:00 13.4 C 74 % 8.87 C
271 13-05-2021 22:30:00 13.3 C 76 % 9.16 C
272 13-05-2021 22:35:00 13.3 C 75 % 8.97 C
273 13-05-2021 22:40:00 13.2 C 77 % 9.26 C
274 13-05-2021 22:45:00 13.1 C 77 % 9.16 C
275 13-05-2021 22:50:00 13 C 77 % 9.07 C
Sensor: Nr:Datum:Temp:Feuchte:Taupunkt:
Aussen-T/F 276 13-05-2021 22:55:00 12.8 C 78 % 9.06 C
277 13-05-2021 23:00:00 12.7 C 78 % 8.97 C
278 13-05-2021 23:05:00 12.6 C 79 % 9.06 C
279 13-05-2021 23:10:00 12.4 C 79 % 8.86 C
280 13-05-2021 23:15:00 12.4 C 80 % 9.05 C
281 13-05-2021 23:20:00 12.3 C 80 % 8.95 C
282 13-05-2021 23:25:00 12.2 C 80 % 8.86 C
283 13-05-2021 23:30:00 12.2 C 81 % 9.04 C
284 13-05-2021 23:35:00 12.1 C 81 % 8.94 C
285 13-05-2021 23:40:00 12.1 C 81 % 8.94 C
286 13-05-2021 23:45:00 12.1 C 80 % 8.76 C
287 13-05-2021 23:50:00 12.1 C 80 % 8.76 C
288 13-05-2021 23:55:00 12.1 C 81 % 8.94 C
289 14-05-2021 00:00:00 12.1 C 81 % 8.94 C
290 14-05-2021 00:05:00 12.1 C 81 % 8.94 C
291 14-05-2021 00:10:00 12.1 C 82 % 9.12 C
292 14-05-2021 00:15:00 12 C 82 % 9.03 C
293 14-05-2021 00:20:00 11.9 C 82 % 8.93 C
294 14-05-2021 00:25:00 11.9 C 83 % 9.11 C
295 14-05-2021 00:30:00 11.8 C 83 % 9.01 C
296 14-05-2021 00:35:00 11.8 C 83 % 9.01 C
297 14-05-2021 00:40:00 11.7 C 83 % 8.91 C
298 14-05-2021 00:45:00 11.6 C 83 % 8.81 C
299 14-05-2021 00:50:00 11.5 C 83 % 8.72 C
300 14-05-2021 00:55:00 11.4 C 84 % 8.8 C
Sensor: Nr:Datum:Temp:Feuchte:Taupunkt:
Aussen-T/F 301 14-05-2021 01:00:00 11.3 C 84 % 8.7 C
302 14-05-2021 01:05:00 11.2 C 84 % 8.6 C
303 14-05-2021 01:10:00 11.1 C 85 % 8.68 C
304 14-05-2021 01:15:00 10.9 C 85 % 8.48 C
305 14-05-2021 01:20:00 10.9 C 85 % 8.48 C
306 14-05-2021 01:25:00 10.9 C 86 % 8.65 C
307 14-05-2021 01:30:00 10.9 C 86 % 8.65 C
308 14-05-2021 01:35:00 10.9 C 86 % 8.65 C
309 14-05-2021 01:40:00 10.9 C 86 % 8.65 C
310 14-05-2021 01:45:00 10.9 C 86 % 8.65 C
311 14-05-2021 01:50:00 10.9 C 87 % 8.82 C
312 14-05-2021 01:55:00 10.8 C 87 % 8.73 C
313 14-05-2021 02:00:00 10.8 C 87 % 8.73 C
314 14-05-2021 02:05:00 10.7 C 86 % 8.46 C
315 14-05-2021 02:10:00 10.6 C 86 % 8.36 C
316 14-05-2021 02:15:00 10.4 C 86 % 8.16 C
317 14-05-2021 02:20:00 10.3 C 86 % 8.06 C
318 14-05-2021 02:25:00 10.2 C 87 % 8.14 C
319 14-05-2021 02:30:00 10.1 C 87 % 8.04 C
320 14-05-2021 02:35:00 9.9 C 87 % 7.84 C
321 14-05-2021 02:40:00 9.8 C 87 % 7.74 C
322 14-05-2021 02:45:00 9.6 C 88 % 7.71 C
323 14-05-2021 02:50:00 9.5 C 88 % 7.61 C
324 14-05-2021 02:55:00 9.4 C 88 % 7.52 C
325 14-05-2021 03:00:00 9.3 C 88 % 7.42 C
Sensor: Nr:Datum:Temp:Feuchte:Taupunkt:
Aussen-T/F 326 14-05-2021 03:05:00 9.2 C 89 % 7.48 C
327 14-05-2021 03:10:00 9.1 C 89 % 7.39 C
328 14-05-2021 03:15:00 8.9 C 89 % 7.19 C
329 14-05-2021 03:20:00 8.8 C 89 % 7.09 C
330 14-05-2021 03:25:00 8.7 C 89 % 6.99 C
331 14-05-2021 03:30:00 8.6 C 90 % 7.06 C
332 14-05-2021 03:35:00 8.5 C 90 % 6.96 C
333 14-05-2021 03:40:00 8.4 C 90 % 6.86 C
334 14-05-2021 03:45:00 8.3 C 90 % 6.76 C
335 14-05-2021 03:50:00 8.3 C 90 % 6.76 C
336 14-05-2021 03:55:00 8.2 C 90 % 6.66 C
337 14-05-2021 04:00:00 8.1 C 91 % 6.72 C
338 14-05-2021 04:05:00 8.1 C 91 % 6.72 C
339 14-05-2021 04:10:00 8.1 C 91 % 6.72 C
340 14-05-2021 04:15:00 8 C 91 % 6.62 C
341 14-05-2021 04:20:00 8.1 C 91 % 6.72 C
342 14-05-2021 04:25:00 8 C 91 % 6.62 C
343 14-05-2021 04:30:00 7.9 C 91 % 6.52 C
344 14-05-2021 04:35:00 7.9 C 91 % 6.52 C
345 14-05-2021 04:40:00 7.8 C 91 % 6.43 C
346 14-05-2021 04:45:00 7.7 C 91 % 6.33 C
347 14-05-2021 04:50:00 7.7 C 91 % 6.33 C
348 14-05-2021 04:55:00 7.7 C 91 % 6.33 C
349 14-05-2021 05:00:00 7.7 C 91 % 6.33 C
350 14-05-2021 05:05:00 7.7 C 91 % 6.33 C
Sensor: Nr:Datum:Temp:Feuchte:Taupunkt:
Aussen-T/F 351 14-05-2021 05:10:00 7.7 C 91 % 6.33 C
352 14-05-2021 05:15:00 7.6 C 91 % 6.23 C
353 14-05-2021 05:20:00 7.5 C 91 % 6.13 C
354 14-05-2021 05:25:00 7.4 C 91 % 6.03 C
355 14-05-2021 05:30:00 7.3 C 91 % 5.93 C
356 14-05-2021 05:35:00 7.3 C 91 % 5.93 C
357 14-05-2021 05:40:00 7.3 C 92 % 6.09 C
358 14-05-2021 05:45:00 7.3 C 92 % 6.09 C
359 14-05-2021 05:50:00 7.3 C 92 % 6.09 C
360 14-05-2021 05:55:00 7.3 C 92 % 6.09 C
361 14-05-2021 06:00:00 7.4 C 92 % 6.19 C
362 14-05-2021 06:05:00 7.4 C 92 % 6.19 C
363 14-05-2021 06:10:00 7.4 C 92 % 6.19 C
364 14-05-2021 06:15:00 7.4 C 92 % 6.19 C
365 14-05-2021 06:20:00 7.4 C 92 % 6.19 C
366 14-05-2021 06:25:00 7.4 C 92 % 6.19 C
367 14-05-2021 06:30:00 7.4 C 92 % 6.19 C
368 14-05-2021 06:35:00 7.4 C 92 % 6.19 C
369 14-05-2021 06:40:00 7.4 C 92 % 6.19 C
370 14-05-2021 06:45:00 7.6 C 92 % 6.39 C
371 14-05-2021 06:50:00 7.6 C 92 % 6.39 C
372 14-05-2021 06:55:00 7.7 C 92 % 6.48 C
373 14-05-2021 07:00:00 7.8 C 92 % 6.58 C
374 14-05-2021 07:05:00 8 C 91 % 6.62 C
375 14-05-2021 07:10:00 8.1 C 91 % 6.72 C
Sensor: Nr:Datum:Temp:Feuchte:Taupunkt:
Aussen-T/F 376 14-05-2021 07:15:00 8.2 C 91 % 6.82 C
377 14-05-2021 07:20:00 8.3 C 90 % 6.76 C
378 14-05-2021 07:25:00 8.4 C 90 % 6.86 C
379 14-05-2021 07:30:00 8.5 C 91 % 7.12 C
380 14-05-2021 07:35:00 8.6 C 90 % 7.06 C
381 14-05-2021 07:40:00 8.8 C 90 % 7.25 C
382 14-05-2021 07:45:00 9 C 90 % 7.45 C
383 14-05-2021 07:50:00 9.2 C 89 % 7.48 C
384 14-05-2021 07:55:00 9.3 C 88 % 7.42 C
385 14-05-2021 08:00:00 9.5 C 88 % 7.61 C
386 14-05-2021 08:05:00 9.6 C 87 % 7.55 C
387 14-05-2021 08:10:00 9.7 C 87 % 7.64 C
388 14-05-2021 08:15:00 9.8 C 87 % 7.74 C
389 14-05-2021 08:20:00 9.9 C 87 % 7.84 C
390 14-05-2021 08:25:00 10.1 C 87 % 8.04 C
391 14-05-2021 08:30:00 10.2 C 87 % 8.14 C
392 14-05-2021 08:35:00 10.4 C 86 % 8.16 C
393 14-05-2021 08:40:00 10.7 C 86 % 8.46 C
394 14-05-2021 08:45:00 10.8 C 85 % 8.38 C
395 14-05-2021 08:50:00 11.1 C 85 % 8.68 C
396 14-05-2021 08:55:00 11.3 C 84 % 8.7 C
397 14-05-2021 09:00:00 11.4 C 83 % 8.62 C
398 14-05-2021 09:05:00 11.7 C 83 % 8.91 C
399 14-05-2021 09:10:00 11.8 C 82 % 8.83 C
400 14-05-2021 09:15:00 11.9 C 82 % 8.93 C
Sensor: Nr:Datum:Temp:Feuchte:Taupunkt:
Aussen-T/F 401 14-05-2021 09:20:00 12.1 C 81 % 8.94 C
402 14-05-2021 09:25:00 12.2 C 81 % 9.04 C
403 14-05-2021 09:30:00 12.2 C 80 % 8.86 C
404 14-05-2021 09:35:00 12.3 C 81 % 9.14 C
405 14-05-2021 09:40:00 12.4 C 80 % 9.05 C
406 14-05-2021 09:45:00 12.6 C 80 % 9.25 C
407 14-05-2021 09:50:00 12.7 C 79 % 9.16 C
408 14-05-2021 09:55:00 12.9 C 79 % 9.35 C
409 14-05-2021 10:00:00 13.1 C 79 % 9.54 C
410 14-05-2021 10:05:00 13.1 C 78 % 9.36 C
411 14-05-2021 10:10:00 13.2 C 78 % 9.45 C
412 14-05-2021 10:15:00 13.4 C 77 % 9.45 C
413 14-05-2021 10:20:00 13.6 C 76 % 9.45 C
414 14-05-2021 10:25:00 13.8 C 77 % 9.84 C
415 14-05-2021 10:30:00 13.9 C 76 % 9.74 C
416 14-05-2021 10:35:00 13.9 C 75 % 9.55 C
417 14-05-2021 10:40:00 13.9 C 75 % 9.55 C
418 14-05-2021 10:45:00 14 C 75 % 9.64 C
419 14-05-2021 10:50:00 14.3 C 76 % 10.13 C
420 14-05-2021 10:55:00 14.6 C 74 % 10.02 C
421 14-05-2021 11:00:00 14.8 C 72 % 9.81 C
422 14-05-2021 11:05:00 14.8 C 70 % 9.39 C
423 14-05-2021 11:10:00 14.8 C 70 % 9.39 C
424 14-05-2021 11:15:00 14.8 C 71 % 9.6 C
425 14-05-2021 11:20:00 14.8 C 71 % 9.6 C
Sensor: Nr:Datum:Temp:Feuchte:Taupunkt:
Aussen-T/F 426 14-05-2021 11:25:00 14.8 C 69 % 9.17 C
427 14-05-2021 11:30:00 14.9 C 70 % 9.48 C
428 14-05-2021 11:35:00 15 C 68 % 9.15 C
429 14-05-2021 11:40:00 15 C 70 % 9.58 C
430 14-05-2021 11:45:00 15.1 C 68 % 9.24 C
431 14-05-2021 11:50:00 15.2 C 68 % 9.34 C
432 14-05-2021 11:55:00 15.2 C 68 % 9.34 C
433 14-05-2021 12:00:00 15.2 C 66 % 8.9 C
434 14-05-2021 12:05:00 15.2 C 67 % 9.12 C
435 14-05-2021 12:10:00 15.3 C 65 % 8.77 C
436 14-05-2021 12:15:00 15.5 C 64 % 8.73 C
437 14-05-2021 12:20:00 15.6 C 65 % 9.05 C
438 14-05-2021 12:25:00 15.6 C 64 % 8.82 C
439 14-05-2021 12:30:00 15.7 C 64 % 8.92 C
440 14-05-2021 12:35:00 15.8 C 62 % 8.54 C
441 14-05-2021 12:40:00 15.8 C 63 % 8.78 C
442 14-05-2021 12:45:00 15.9 C 63 % 8.87 C
443 14-05-2021 12:50:00 16.1 C 63 % 9.06 C
444 14-05-2021 12:55:00 16.2 C 62 % 8.92 C
445 14-05-2021 13:00:00 16.2 C 61 % 8.68 C
446 14-05-2021 13:05:00 16.3 C 61 % 8.77 C
447 14-05-2021 13:10:00 16.4 C 60 % 8.62 C
448 14-05-2021 13:15:00 16.7 C 60 % 8.9 C
449 14-05-2021 13:20:00 16.7 C 57 % 8.15 C
450 14-05-2021 13:25:00 16.8 C 60 % 9 C
Sensor: Nr:Datum:Temp:Feuchte:Taupunkt:
Aussen-T/F 451 14-05-2021 13:30:00 16.9 C 58 % 8.59 C
452 14-05-2021 13:35:00 17.1 C 56 % 8.26 C
453 14-05-2021 13:40:00 17.4 C 52 % 7.45 C
454 14-05-2021 13:45:00 17.6 C 52 % 7.64 C
455 14-05-2021 13:50:00 17.7 C 55 % 8.55 C
456 14-05-2021 13:55:00 17.6 C 54 % 8.19 C
457 14-05-2021 14:00:00 17.7 C 56 % 8.82 C
458 14-05-2021 14:05:00 17.6 C 56 % 8.73 C
459 14-05-2021 14:10:00 17.6 C 56 % 8.73 C
460 14-05-2021 14:15:00 17.6 C 52 % 7.64 C
461 14-05-2021 14:20:00 17.7 C 56 % 8.82 C
462 14-05-2021 14:25:00 17.8 C 53 % 8.1 C
463 14-05-2021 14:30:00 17.8 C 54 % 8.38 C
464 14-05-2021 14:35:00 17.7 C 53 % 8.01 C
465 14-05-2021 14:40:00 17.2 C 57 % 8.62 C
466 14-05-2021 14:45:00 16.7 C 55 % 7.62 C
467 14-05-2021 14:50:00 16.8 C 57 % 8.24 C
468 14-05-2021 14:55:00 17.1 C 57 % 8.52 C
469 14-05-2021 15:00:00 17.4 C 57 % 8.8 C
470 14-05-2021 15:05:00 17.9 C 55 % 8.74 C
471 14-05-2021 15:10:00 18.2 C 53 % 8.47 C
472 14-05-2021 15:15:00 18.2 C 52 % 8.19 C
473 14-05-2021 15:20:00 18.2 C 53 % 8.47 C
474 14-05-2021 15:25:00 18.1 C 53 % 8.38 C
475 14-05-2021 15:30:00 18.1 C 53 % 8.38 C
Sensor: Nr:Datum:Temp:Feuchte:Taupunkt:
Aussen-T/F 476 14-05-2021 15:35:00 18.3 C 56 % 9.38 C
477 14-05-2021 15:40:00 18.6 C 49 % 7.69 C
478 14-05-2021 15:45:00 18.8 C 50 % 8.17 C
479 14-05-2021 15:50:00 19.4 C 48 % 8.12 C
480 14-05-2021 15:55:00 19.4 C 51 % 9.01 C
481 14-05-2021 16:00:00 19.2 C 52 % 9.11 C
482 14-05-2021 16:05:00 19.1 C 51 % 8.73 C
483 14-05-2021 16:10:00 18.9 C 50 % 8.26 C
484 14-05-2021 16:15:00 19 C 49 % 8.05 C
485 14-05-2021 16:20:00 19.2 C 50 % 8.53 C
486 14-05-2021 16:25:00 19.6 C 49 % 8.6 C
487 14-05-2021 16:30:00 19.8 C 47 % 8.17 C
488 14-05-2021 16:35:00 19.8 C 46 % 7.86 C
489 14-05-2021 16:40:00 19.8 C 47 % 8.17 C
490 14-05-2021 16:45:00 20 C 48 % 8.67 C
491 14-05-2021 16:50:00 20.3 C 49 % 9.24 C
492 14-05-2021 16:55:00 20.6 C 46 % 8.58 C
493 14-05-2021 17:00:00 20.7 C 44 % 8.02 C
494 14-05-2021 17:05:00 20.6 C 42 % 7.25 C
495 14-05-2021 17:10:00 20.3 C 43 % 7.32 C
496 14-05-2021 17:15:00 20.4 C 45 % 8.08 C
497 14-05-2021 17:20:00 20.5 C 45 % 8.17 C
498 14-05-2021 17:25:00 20.6 C 44 % 7.93 C
499 14-05-2021 17:30:00 20.6 C 44 % 7.93 C
500 14-05-2021 17:35:00 20.4 C 45 % 8.08 C
Sensor: Nr:Datum:Temp:Feuchte:Taupunkt:
Aussen-T/F 501 14-05-2021 17:40:00 19.9 C 46 % 7.95 C
502 14-05-2021 17:45:00 19.2 C 49 % 8.24 C
503 14-05-2021 17:50:00 18.6 C 50 % 7.98 C
504 14-05-2021 17:55:00 17.9 C 54 % 8.47 C
505 14-05-2021 18:00:00 17.2 C 58 % 8.87 C
506 14-05-2021 18:05:00 16.6 C 59 % 8.56 C
507 14-05-2021 18:10:00 16.2 C 60 % 8.43 C
508 14-05-2021 18:15:00 15.9 C 62 % 8.64 C
509 14-05-2021 18:20:00 16 C 61 % 8.49 C
510 14-05-2021 18:25:00 16.1 C 61 % 8.58 C
511 14-05-2021 18:30:00 16.1 C 61 % 8.58 C
512 14-05-2021 18:35:00 16.2 C 63 % 9.16 C
513 14-05-2021 18:40:00 16.7 C 63 % 9.63 C
514 14-05-2021 18:45:00 17.1 C 61 % 9.53 C
515 14-05-2021 18:50:00 17.2 C 61 % 9.62 C
516 14-05-2021 18:55:00 17.3 C 61 % 9.71 C
517 14-05-2021 19:00:00 17.4 C 60 % 9.56 C
518 14-05-2021 19:05:00 17.4 C 60 % 9.56 C
519 14-05-2021 19:10:00 17.4 C 58 % 9.06 C
520 14-05-2021 19:15:00 17.3 C 59 % 9.22 C
521 14-05-2021 19:20:00 17.3 C 59 % 9.22 C
522 14-05-2021 19:25:00 17.3 C 57 % 8.71 C
523 14-05-2021 19:30:00 17.2 C 54 % 7.82 C
524 14-05-2021 19:35:00 16.8 C 57 % 8.24 C
525 14-05-2021 19:40:00 16.6 C 60 % 8.81 C
Sensor: Nr:Datum:Temp:Feuchte:Taupunkt:
Aussen-T/F 526 14-05-2021 19:45:00 16.3 C 62 % 9.01 C
527 14-05-2021 19:50:00 16 C 63 % 8.97 C
528 14-05-2021 19:55:00 15.7 C 65 % 9.15 C
529 14-05-2021 20:00:00 15.3 C 66 % 8.99 C
530 14-05-2021 20:05:00 15 C 68 % 9.15 C
531 14-05-2021 20:10:00 14.7 C 69 % 9.08 C
532 14-05-2021 20:15:00 14.3 C 70 % 8.91 C
533 14-05-2021 20:20:00 14.1 C 71 % 8.93 C
534 14-05-2021 20:25:00 13.8 C 73 % 9.05 C
535 14-05-2021 20:30:00 13.7 C 73 % 8.95 C
536 14-05-2021 20:35:00 13.5 C 74 % 8.96 C
537 14-05-2021 20:40:00 13.4 C 74 % 8.87 C
538 14-05-2021 20:45:00 13.3 C 75 % 8.97 C
539 14-05-2021 20:50:00 13.3 C 76 % 9.16 C
540 14-05-2021 20:55:00 13.2 C 77 % 9.26 C
541 14-05-2021 21:00:00 13.2 C 77 % 9.26 C
542 14-05-2021 21:05:00 13.1 C 77 % 9.16 C
543 14-05-2021 21:10:00 13 C 78 % 9.26 C
544 14-05-2021 21:15:00 12.9 C 79 % 9.35 C
545 14-05-2021 21:20:00 12.8 C 79 % 9.25 C
546 14-05-2021 21:25:00 12.8 C 80 % 9.44 C
547 14-05-2021 21:30:00 12.7 C 80 % 9.34 C
548 14-05-2021 21:35:00 12.5 C 80 % 9.15 C
549 14-05-2021 21:40:00 12.4 C 80 % 9.05 C
550 14-05-2021 21:45:00 12.3 C 81 % 9.14 C
Sensor: Nr:Datum:Temp:Feuchte:Taupunkt:
Aussen-T/F 551 14-05-2021 21:50:00 12.3 C 82 % 9.32 C
552 14-05-2021 21:55:00 12.3 C 82 % 9.32 C
553 14-05-2021 22:00:00 12.2 C 82 % 9.22 C
554 14-05-2021 22:05:00 12.2 C 82 % 9.22 C
555 14-05-2021 22:10:00 12 C 82 % 9.03 C
556 14-05-2021 22:15:00 11.9 C 82 % 8.93 C
557 14-05-2021 22:20:00 11.8 C 82 % 8.83 C
558 14-05-2021 22:25:00 11.7 C 83 % 8.91 C
559 14-05-2021 22:30:00 11.6 C 83 % 8.81 C
560 14-05-2021 22:35:00 11.6 C 83 % 8.81 C
561 14-05-2021 22:40:00 11.5 C 83 % 8.72 C
562 14-05-2021 22:45:00 11.5 C 83 % 8.72 C
563 14-05-2021 22:50:00 11.5 C 84 % 8.89 C
564 14-05-2021 22:55:00 11.6 C 85 % 9.17 C
565 14-05-2021 23:00:00 11.6 C 85 % 9.17 C
566 14-05-2021 23:05:00 11.6 C 85 % 9.17 C
567 14-05-2021 23:10:00 11.6 C 85 % 9.17 C
568 14-05-2021 23:15:00 11.5 C 85 % 9.07 C
569 14-05-2021 23:20:00 11.4 C 84 % 8.8 C
570 14-05-2021 23:25:00 11.4 C 83 % 8.62 C
571 14-05-2021 23:30:00 11.4 C 82 % 8.44 C
572 14-05-2021 23:35:00 11.4 C 82 % 8.44 C
573 14-05-2021 23:40:00 11.6 C 81 % 8.45 C
574 14-05-2021 23:45:00 11.6 C 81 % 8.45 C
575 14-05-2021 23:50:00 11.6 C 81 % 8.45 C
Sensor: Nr:Datum:Temp:Feuchte:Taupunkt:
Aussen-T/F 576 14-05-2021 23:55:00 11.6 C 81 % 8.45 C

Legende:
   Min
   Max


Maximal/Minimal-Werte vom 13.05.2021 - 14.05.2021

Sensor Min Max Avg
Temp
(Aussen-T/F)
6.4 °C
13-05-2021  05:45:00
21 °C
13-05-2021  16:00:00
12.94 °C
Feuchte
(Aussen-T/F)
42 %
13-05-2021  14:15:00
97 %
13-05-2021  09:10:00
75.74 %
Taupunkt
(Aussen-T/F)
5.66 C
13-05-2021  05:45:00
11.67 C
13-05-2021  12:25:00
8.3 C

Die Daten stammen von einer Davis Vantage Pro 2 Wetter-Station und werden unter Linux mit der Software wview2wettercgi und aufbereitet. Alle Angaben erfolgen ohne Gewähr für ihre Vollständigkeit oder Richtigkeit.
Kontakt: Rainer Krienke krienke@uni-koblenz.de . Meine Webseiten an der Uni Koblenz oder privat.
Version: $Revision: 0.78 $